createdAt,value
2022-08-27T00:00:24.725Z,13.70
2022-08-27T00:05:46.932Z,14.30
2022-08-27T00:15:57.569Z,16.67
2022-08-27T00:21:06.991Z,10.15
2022-08-27T00:26:12.356Z,12.40
2022-08-27T00:31:16.938Z,13.13
2022-08-27T00:36:24.364Z,12.48
2022-08-27T00:41:28.726Z,11.40
2022-08-27T00:46:39.635Z,10.13
2022-08-27T00:51:57.699Z,15.20
2022-08-27T00:57:04.311Z,9.70
2022-08-27T01:02:21.413Z,9.73
2022-08-27T01:07:31.955Z,10.93
2022-08-27T01:12:38.235Z,11.13
2022-08-27T01:17:45.075Z,15.90
2022-08-27T01:22:59.382Z,14.23
2022-08-27T01:28:07.588Z,9.93
2022-08-27T01:33:15.564Z,15.27
2022-08-27T01:38:30.887Z,13.75
2022-08-27T01:43:37.424Z,13.75
2022-08-27T01:48:41.949Z,12.93
2022-08-27T01:53:48.101Z,12.07
2022-08-27T01:58:54.826Z,12.98
2022-08-27T02:03:59.146Z,13.70
2022-08-27T02:09:04.450Z,13.88
2022-08-27T02:14:12.881Z,11.68
2022-08-27T02:19:19.210Z,12.02
2022-08-27T02:24:23.897Z,14.00
2022-08-27T02:29:30.544Z,15.23
2022-08-27T02:34:35.304Z,12.25
2022-08-27T02:39:43.135Z,12.57
2022-08-27T02:44:52.090Z,9.68
2022-08-27T02:49:56.789Z,15.32
2022-08-27T02:55:01.518Z,12.32
2022-08-27T03:00:12.805Z,16.50
2022-08-27T03:05:18.142Z,13.75
2022-08-27T03:10:23.901Z,12.50
2022-08-27T03:15:30.199Z,15.88
2022-08-27T03:20:35.381Z,11.18
2022-08-27T03:25:40.575Z,11.93
2022-08-27T03:30:52.143Z,12.85
2022-08-27T03:35:56.984Z,17.25
2022-08-27T03:41:03.375Z,13.00
2022-08-27T03:46:10.667Z,13.63
2022-08-27T03:51:17.824Z,8.95
2022-08-27T03:56:22.173Z,11.95
2022-08-27T04:01:29.597Z,13.57
2022-08-27T04:06:36.537Z,11.38
2022-08-27T04:11:41.207Z,13.80
2022-08-27T04:16:48.775Z,9.60
2022-08-27T04:22:02.374Z,15.05
2022-08-27T04:27:08.511Z,10.40
2022-08-27T04:32:15.222Z,9.00
2022-08-27T04:37:23.333Z,7.90
2022-08-27T04:42:28.252Z,13.00
2022-08-27T04:47:34.769Z,9.93
2022-08-27T04:52:40.799Z,8.93
2022-08-27T04:57:46.281Z,9.20
2022-08-27T05:02:52.614Z,14.38
2022-08-27T05:07:57.147Z,15.10
2022-08-27T05:13:01.576Z,15.60
2022-08-27T05:18:10.135Z,11.48
2022-08-27T05:23:15.295Z,14.35
2022-08-27T05:28:22.554Z,16.60
2022-08-27T05:33:34.774Z,18.88
2022-08-27T05:38:38.935Z,15.85
2022-08-27T05:43:49.823Z,11.30
2022-08-27T05:49:00.414Z,10.88
2022-08-27T05:54:08.919Z,10.40
2022-08-27T05:59:30.918Z,10.47
2022-08-27T06:04:40.973Z,13.88
2022-08-27T06:09:45.598Z,12.88
2022-08-27T06:14:49.848Z,12.10
2022-08-27T06:19:57.610Z,11.55
2022-08-27T06:25:02.539Z,13.63
2022-08-27T06:30:08.811Z,11.38
2022-08-27T06:35:15.361Z,12.95
2022-08-27T06:40:19.665Z,14.77
2022-08-27T06:45:24.187Z,8.38
2022-08-27T06:50:31.240Z,14.07
2022-08-27T06:55:44.053Z,8.15
2022-08-27T07:00:49.081Z,11.32
2022-08-27T07:05:55.841Z,7.80
2022-08-27T07:11:00.933Z,8.65
2022-08-27T07:16:07.977Z,8.57
2022-08-27T07:21:14.578Z,8.55
2022-08-27T07:26:19.652Z,7.07
2022-08-27T07:31:25.632Z,8.38
2022-08-27T07:36:31.993Z,7.80
2022-08-27T07:41:57.773Z,11.13
2022-08-27T07:47:02.655Z,11.00
2022-08-27T07:52:08.901Z,9.40
2022-08-27T07:57:14.114Z,7.05
2022-08-27T08:02:18.436Z,10.65
2022-08-27T08:07:26.375Z,11.07
2022-08-27T08:12:32.220Z,12.20
2022-08-27T08:17:37.124Z,11.82
2022-08-27T08:22:43.166Z,9.55
2022-08-27T08:27:48.956Z,10.40
2022-08-27T08:32:53.537Z,15.52
2022-08-27T08:37:59.756Z,12.35
2022-08-27T08:43:08.281Z,12.82
2022-08-27T08:48:16.873Z,10.40
2022-08-27T08:53:35.011Z,12.40
2022-08-27T08:58:47.621Z,12.10
2022-08-27T09:03:57.114Z,14.45
2022-08-27T09:09:09.862Z,12.77
2022-08-27T09:14:26.205Z,8.55
2022-08-27T09:19:31.167Z,11.60
2022-08-27T09:24:49.312Z,14.70
2022-08-27T09:29:57.094Z,19.67
2022-08-27T09:35:05.159Z,13.00
2022-08-27T09:40:23.039Z,13.52
2022-08-27T09:45:31.168Z,17.63
2022-08-27T09:50:43.546Z,11.68
2022-08-27T09:55:56.013Z,11.13
2022-08-27T10:01:04.701Z,25.83
2022-08-27T10:06:11.548Z,30.40
2022-08-27T10:11:23.875Z,13.77
2022-08-27T10:16:53.316Z,14.50
2022-08-27T10:22:07.572Z,13.38
2022-08-27T10:27:25.094Z,11.15
2022-08-27T10:32:46.859Z,15.35
2022-08-27T10:38:12.111Z,9.15
2022-08-27T10:43:44.376Z,11.95
2022-08-27T10:48:58.714Z,9.63
2022-08-27T10:54:10.331Z,10.85
2022-08-27T10:59:31.409Z,8.98
2022-08-27T11:04:41.451Z,11.38
2022-08-27T11:09:56.973Z,7.00
2022-08-27T11:15:12.281Z,6.60
2022-08-27T11:20:23.197Z,7.60
2022-08-27T11:25:47.024Z,10.90
2022-08-27T11:31:03.451Z,11.27
2022-08-27T11:36:39.727Z,15.82
2022-08-27T11:41:56.307Z,11.20
2022-08-27T11:47:15.176Z,8.98
2022-08-27T11:57:33.800Z,10.65
2022-08-27T12:02:39.871Z,4.88
2022-08-27T12:07:53.515Z,4.95
2022-08-27T12:13:13.790Z,6.25
2022-08-27T12:18:50.150Z,4.97
2022-08-27T12:24:22.862Z,6.35
2022-08-27T12:29:31.874Z,9.10
2022-08-27T12:34:45.867Z,7.80
2022-08-27T12:39:54.994Z,6.85
2022-08-27T12:45:01.582Z,4.07
2022-08-27T12:50:08.930Z,8.20
2022-08-27T12:55:24.473Z,7.32
2022-08-27T13:00:36.478Z,8.50
2022-08-27T13:05:47.687Z,7.57
2022-08-27T13:10:52.871Z,11.88
2022-08-27T13:16:00.864Z,11.77
2022-08-27T13:21:14.017Z,11.73
2022-08-27T13:26:24.136Z,8.70
2022-08-27T13:31:30.024Z,14.38
2022-08-27T13:36:50.020Z,6.85
2022-08-27T13:41:55.742Z,10.32
2022-08-27T13:47:04.496Z,8.38
2022-08-27T13:52:22.857Z,6.18
2022-08-27T13:57:31.796Z,7.63
2022-08-27T14:02:36.644Z,8.90
2022-08-27T14:07:47.897Z,6.40
2022-08-27T14:12:58.823Z,8.05
2022-08-27T14:18:05.319Z,6.65
2022-08-27T14:23:11.785Z,5.15
2022-08-27T14:28:16.375Z,4.63
2022-08-27T14:33:21.718Z,7.13
2022-08-27T14:38:32.091Z,5.22
2022-08-27T14:43:37.087Z,7.18
2022-08-27T14:48:50.514Z,9.13
2022-08-27T14:53:59.408Z,6.28
2022-08-27T14:59:04.551Z,4.60
2022-08-27T15:04:10.267Z,5.13
2022-08-27T15:09:16.121Z,8.55
2022-08-27T15:14:26.042Z,7.80
2022-08-27T15:19:31.347Z,6.50
2022-08-27T15:24:47.607Z,8.88
2022-08-27T15:29:53.086Z,9.40
2022-08-27T15:34:58.776Z,7.88
2022-08-27T15:40:06.663Z,6.78
2022-08-27T15:45:14.495Z,8.60
2022-08-27T15:50:19.109Z,9.00
2022-08-27T15:55:31.074Z,6.15
2022-08-27T16:00:36.772Z,10.60
2022-08-27T16:05:44.409Z,5.65
2022-08-27T16:10:50.942Z,6.00
2022-08-27T16:15:56.539Z,6.97
2022-08-27T16:21:03.592Z,6.40
2022-08-27T16:26:09.891Z,5.35
2022-08-27T16:31:15.368Z,7.68
2022-08-27T16:36:20.108Z,7.18
2022-08-27T16:41:26.891Z,8.85
2022-08-27T16:46:31.274Z,7.80
2022-08-27T16:51:38.148Z,4.20
2022-08-27T16:56:46.332Z,7.28
2022-08-27T17:01:54.187Z,6.13
2022-08-27T17:06:59.257Z,8.07
2022-08-27T17:12:05.489Z,9.35
2022-08-27T17:17:10.659Z,9.02
2022-08-27T17:22:15.765Z,9.45
2022-08-27T17:27:22.388Z,11.63
2022-08-27T17:32:27.874Z,8.52
2022-08-27T17:37:32.540Z,7.70
2022-08-27T17:42:39.616Z,9.27
2022-08-27T17:47:44.692Z,9.32
2022-08-27T17:52:49.155Z,10.98
2022-08-27T17:57:54.967Z,12.18
2022-08-27T18:02:59.368Z,8.65
2022-08-27T18:08:03.812Z,11.82
2022-08-27T18:13:10.825Z,12.38
2022-08-27T18:18:16.338Z,14.07
2022-08-27T18:23:22.769Z,15.18
2022-08-27T18:28:29.089Z,14.60
2022-08-27T18:33:33.789Z,13.40
2022-08-27T18:38:38.164Z,12.07
2022-08-27T18:43:44.150Z,13.50
2022-08-27T18:48:48.681Z,10.88
2022-08-27T18:53:54.161Z,10.63
2022-08-27T18:59:00.679Z,10.38
2022-08-27T19:04:06.221Z,8.85
2022-08-27T19:09:10.782Z,11.65
2022-08-27T19:14:17.911Z,8.98
2022-08-27T19:19:22.407Z,11.20
2022-08-27T19:24:28.199Z,14.88
2022-08-27T19:29:34.384Z,12.18
2022-08-27T19:34:38.720Z,14.63
2022-08-27T19:39:44.257Z,17.00
2022-08-27T19:44:49.995Z,12.00
2022-08-27T19:49:55.589Z,12.50
2022-08-27T19:55:15.287Z,15.90
2022-08-27T20:00:25.055Z,15.27
2022-08-27T20:05:32.839Z,14.10
2022-08-27T20:10:39.278Z,14.60
2022-08-27T20:15:46.388Z,13.77
2022-08-27T20:20:52.573Z,14.80
2022-08-27T20:26:01.234Z,11.70
2022-08-27T20:31:07.844Z,12.17
2022-08-27T20:36:14.804Z,11.85
2022-08-27T20:41:19.625Z,15.45
2022-08-27T20:46:28.616Z,15.43
2022-08-27T20:52:02.098Z,13.25
2022-08-27T20:56:58.905Z,14.13
2022-08-27T21:02:08.219Z,11.45
2022-08-27T21:07:13.528Z,16.73
2022-08-27T21:12:22.770Z,13.65
2022-08-27T21:22:34.868Z,13.90
2022-08-27T21:27:39.888Z,19.42
2022-08-27T21:32:46.480Z,12.20
2022-08-27T21:37:51.542Z,15.60
2022-08-27T21:42:57.680Z,11.13
2022-08-27T21:48:04.421Z,10.73
2022-08-27T21:53:09.117Z,12.50
2022-08-27T21:58:15.061Z,11.23
2022-08-27T22:03:22.918Z,10.10
2022-08-27T22:08:28.146Z,11.15
2022-08-27T22:13:33.122Z,11.60
2022-08-27T22:18:39.340Z,9.00
2022-08-27T22:23:44.997Z,11.98
2022-08-27T22:28:49.659Z,12.63
2022-08-27T22:33:55.958Z,14.20
2022-08-27T22:39:03.719Z,11.45
2022-08-27T22:44:08.823Z,13.57
2022-08-27T22:49:15.595Z,9.35
2022-08-27T22:54:20.849Z,11.55
2022-08-27T22:59:25.286Z,11.52
2022-08-27T23:04:53.672Z,12.95
2022-08-27T23:09:56.207Z,13.73
2022-08-27T23:15:00.941Z,13.63
2022-08-27T23:20:10.711Z,11.02
2022-08-27T23:30:37.707Z,11.07
2022-08-27T23:35:48.418Z,12.52
2022-08-27T23:40:54.162Z,12.13
2022-08-27T23:45:59.393Z,10.82
2022-08-27T23:51:05.268Z,16.02
2022-08-27T23:56:10.210Z,15.90
